Time;durP1;ratioP1;P1;durP2;ratioP2;P2;SDS_P1;SDS_P2;PMS_P1;PMS_P2;Temp;Humidity;BMP_temperature;BMP_pressure;BME280_temperature;BME280_humidity;BME280_pressure;Samples;Min_cycle;Max_cycle;Signal;HPM_P1;HPM_P2
2023/01/16 00:02:43;;;;;;;0.00;0.00;;;4.80;99.90;;;;;;6139590;23;20013;-89
2023/01/16 00:05:29;;;;;;;;;;;;;;;;;;;;;
2023/01/16 00:08:07;;;;;;;0.00;0.00;;;5.30;99.90;;;;;;6162103;23;20063;-89
2023/01/16 00:14:04;;;;;;;0.00;0.00;;;4.90;99.90;;;;;;6163462;23;20027;-89
2023/01/16 00:16:52;;;;;;;1.23;0.55;;;5.20;99.90;;;;;;6161830;23;20027;-89
2023/01/16 00:19:33;;;;;;;0.00;0.00;;;5.00;99.90;;;;;;6162910;23;20424;-89
2023/01/16 00:22:28;;;;;;;;;;;;;;;;;;;;;
2023/01/16 00:24:59;;;;;;;;;;;5.00;99.90;;;;;;6142354;23;20325;-89
2023/01/16 00:28:08;;;;;;;0.00;0.00;;;5.10;99.90;;;;;;6137552;23;19916;-89
2023/01/16 00:31:10;;;;;;;0.00;0.00;;;5.10;99.90;;;;;;6119159;23;20455;-89
2023/01/16 00:34:05;;;;;;;0.00;0.00;;;5.10;99.90;;;;;;6162304;23;20448;-89
2023/01/16 00:36:54;;;;;;;;;;;;;;;;;;;;;
2023/01/16 00:39:41;;;;;;;;;;;;;;;;;;;;;
2023/01/16 00:42:20;;;;;;;;;;;;;;;;;;;;;
2023/01/16 00:44:55;;;;;;;0.00;0.00;;;5.10;99.90;;;;;;6161711;23;20024;-88
2023/01/16 00:47:47;;;;;;;;;;;;;;;;;;;;;
2023/01/16 00:50:46;;;;;;;;;;;;;;;;;;;;;
2023/01/16 00:53:15;;;;;;;0.00;0.00;;;5.10;99.90;;;;;;6161371;23;20428;-88
2023/01/16 00:55:43;;;;;;;0.00;0.00;;;5.10;99.90;;;;;;6112922;23;20028;-89
2023/01/16 00:58:35;;;;;;;0.00;0.00;;;5.10;99.90;;;;;;6113620;23;20375;-89
2023/01/16 01:01:38;;;;;;;0.00;0.00;;;5.10;99.90;;;;;;6137551;23;20017;-88
2023/01/16 01:04:12;;;;;;;0.10;0.00;;;5.10;99.90;;;;;;6117794;23;20024;-88
2023/01/16 01:07:13;;;;;;;;;;;;;;;;;;;;;
2023/01/16 01:10:37;;;;;;;0.00;0.00;;;5.10;99.90;;;;;;6144869;23;20016;-88
2023/01/16 01:13:50;;;;;;;0.00;0.00;;;5.00;99.90;;;;;;6127109;23;20435;-89
2023/01/16 01:16:23;;;;;;;0.00;0.00;;;5.40;99.90;;;;;;6160548;23;20021;-89
2023/01/16 01:22:11;;;;;;;0.00;0.00;;;5.20;99.90;;;;;;6130350;23;20036;-89
2023/01/16 01:25:35;;;;;;;;;;;;;;;;;;;;;
2023/01/16 01:28:12;;;;;;;0.00;0.00;;;5.30;99.90;;;;;;6141475;23;20028;-89
2023/01/16 01:31:02;;;;;;;;;;;;;;;;;;;;;
2023/01/16 01:33:43;;;;;;;0.00;0.00;;;5.20;99.90;;;;;;6187924;23;20024;-88
2023/01/16 01:39:18;;;;;;;0.00;0.00;;;5.30;99.90;;;;;;6141358;23;20028;-88
2023/01/16 01:42:51;;;;;;;;;;;;;;;;;;;;;
2023/01/16 01:48:29;;;;;;;0.05;0.05;;;5.30;99.90;;;;;;6150131;23;20347;-88
2023/01/16 01:51:36;;;;;;;0.00;0.00;;;5.30;99.90;;;;;;6136937;23;20029;-89
2023/01/16 01:54:40;;;;;;;;;;;;;;;;;;;;;
2023/01/16 02:01:09;;;;;;;;;;;;;;;;;;;;;
2023/01/16 02:04:05;;;;;;;0.00;0.00;;;5.30;99.90;;;;;;6162354;23;20021;-89
2023/01/16 02:07:09;;;;;;;0.00;0.00;;;5.30;99.90;;;;;;6130621;23;20005;-89
2023/01/16 02:10:34;;;;;;;;;;;;;;;;;;;;;
2023/01/16 02:13:20;;;;;;;0.00;0.00;;;5.30;99.90;;;;;;6161686;23;20104;-89
2023/01/16 02:19:29;;;;;;;;;;;;;;;;;;;;;
2023/01/16 02:22:53;;;;;;;0.00;0.00;;;5.40;99.90;;;;;;6161271;23;20104;-89
2023/01/16 02:25:54;;;;;;;0.00;0.00;;;5.40;99.90;;;;;;6015387;23;20115;-89
2023/01/16 02:29:05;;;;;;;0.00;0.00;;;5.40;99.90;;;;;;5992388;23;20082;-89
2023/01/16 02:32:03;;;;;;;0.00;0.00;;;5.40;99.90;;;;;;6127361;23;20032;-89
2023/01/16 02:38:31;;;;;;;;;;;;;;;;;;;;;
2023/01/16 02:45:11;;;;;;;0.00;0.00;;;5.40;99.90;;;;;;6163124;23;20060;-89
2023/01/16 02:48:07;;;;;;;0.00;0.00;;;5.30;99.90;;;;;;6029837;23;20020;-90
2023/01/16 02:51:01;;;;;;;0.00;0.00;;;5.30;99.90;;;;;;6171899;23;20031;-89
2023/01/16 02:53:38;;;;;;;0.00;0.00;;;5.30;99.90;;;;;;6146479;23;20241;-89
2023/01/16 02:56:32;;;;;;;;;;;;;;;;;;;;;
2023/01/16 02:59:12;;;;;;;0.00;0.00;;;5.20;99.90;;;;;;6164577;23;20017;-89
2023/01/16 03:01:55;;;;;;;;;;;;;;;;;;;;;
2023/01/16 03:04:53;;;;;;;;;;;;;;;;;;;;;
2023/01/16 03:08:02;;;;;;;;;;;;;;;;;;;;;
2023/01/16 03:10:58;;;;;;;;;;;;;;;;;;;;;
2023/01/16 03:14:02;;;;;;;0.00;0.00;;;5.10;99.90;;;;;;6162458;23;20025;-89
2023/01/16 03:16:36;;;;;;;0.00;0.00;;;5.10;99.90;;;;;;6138537;23;20036;-89
2023/01/16 03:19:32;;;;;;;0.00;0.00;;;5.10;99.90;;;;;;6137481;23;20021;-89
2023/01/16 03:22:48;;;;;;;0.10;0.00;;;5.30;99.90;;;;;;6162133;23;20028;-89
2023/01/16 03:26:01;;;;;;;0.00;0.00;;;5.10;99.90;;;;;;6163692;23;20017;-88
2023/01/16 03:29:02;;;;;;;;;;;;;;;;;;;;;
2023/01/16 03:32:50;;;;;;;0.00;0.00;;;5.10;99.90;;;;;;6162667;23;20431;-89
2023/01/16 03:35:38;;;;;;;0.10;0.10;;;5.10;99.90;;;;;;6022791;23;20024;-88
2023/01/16 03:38:38;;;;;;;0.00;0.00;;;5.10;99.90;;;;;;6138766;23;20455;-89
2023/01/16 03:41:20;;;;;;;0.20;0.20;;;5.10;99.90;;;;;;6137542;23;20025;-88
2023/01/16 03:44:15;;;;;;;;;;;;;;;;;;;;;
2023/01/16 03:46:51;;;;;;;1.90;0.22;;;5.00;99.90;;;;;;6162190;23;20048;-89
2023/01/16 03:49:34;;;;;;;;;;;;;;;;;;;;;
2023/01/16 03:55:40;;;;;;;0.00;0.00;;;4.90;99.90;;;;;;6162414;23;20431;-88
2023/01/16 03:58:34;;;;;;;0.00;0.00;;;4.90;99.90;;;;;;6138525;23;20108;-89
2023/01/16 04:01:34;;;;;;;0.00;0.00;;;4.90;99.90;;;;;;6137387;23;20021;-89
2023/01/16 04:04:42;;;;;;;;;;;;;;;;;;;;;
2023/01/16 04:07:54;;;;;;;;;;;;;;;;;;;;;
2023/01/16 04:10:55;;;;;;;0.20;0.20;;;4.90;99.90;;;;;;6152967;23;20025;-88
2023/01/16 04:16:31;;;;;;;;;;;;;;;;;;;;;
2023/01/16 04:19:06;;;;;;;0.00;0.00;;;5.40;99.90;;;;;;6139880;23;20021;-88
2023/01/16 04:22:11;;;;;;;;;;;5.30;99.90;;;;;;6138209;23;20310;-87
2023/01/16 04:24:46;;;;;;;;;;;;;;;;;;;;;
2023/01/16 04:27:41;;;;;;;0.30;0.10;;;4.80;99.90;;;;;;6161682;23;20017;-88
2023/01/16 04:30:31;;;;;;;;;;;;;;;;;;;;;
2023/01/16 04:33:09;;;;;;;0.08;0.00;;;4.80;99.90;;;;;;6139778;23;20059;-88
2023/01/16 04:35:39;;;;;;;0.00;0.00;;;4.80;99.90;;;;;;6137316;23;20463;-88
2023/01/16 04:38:28;;;;;;;0.00;0.00;;;4.80;99.90;;;;;;6113727;23;20028;-88
2023/01/16 04:41:02;;;;;;;1.00;0.88;;;4.80;99.90;;;;;;6162848;23;20483;-88
2023/01/16 04:44:05;;;;;;;0.83;0.77;;;4.90;99.90;;;;;;6114590;23;20024;-88
2023/01/16 04:47:00;;;;;;;0.70;0.10;;;4.80;99.90;;;;;;6118537;23;20463;-88
2023/01/16 04:49:47;;;;;;;0.00;0.00;;;4.80;99.90;;;;;;6137416;23;20018;-88
2023/01/16 04:55:45;;;;;;;0.00;0.00;;;4.50;99.90;;;;;;6134582;23;20021;-88
2023/01/16 04:58:39;;;;;;;0.20;0.20;;;4.80;99.90;;;;;;6137138;23;20020;-88
2023/01/16 05:01:37;;;;;;;;;;;;;;;;;;;;;
2023/01/16 05:04:09;;;;;;;0.75;0.38;;;4.40;99.90;;;;;;6139037;23;20017;-88
2023/01/16 05:06:50;;;;;;;0.00;0.00;;;4.40;99.90;;;;;;6138939;23;20439;-88
2023/01/16 05:09:28;;;;;;;;;;;;;;;;;;;;;
2023/01/16 05:12:05;;;;;;;0.05;0.00;;;4.40;99.90;;;;;;6162883;23;20017;-88
2023/01/16 05:14:43;;;;;;;0.00;0.00;;;4.30;99.90;;;;;;6114880;23;20021;-88
2023/01/16 05:17:24;;;;;;;;;;;;;;;;;;;;;
2023/01/16 05:20:15;;;;;;;0.00;0.00;;;4.30;99.90;;;;;;6161443;23;20023;-88
2023/01/16 05:22:51;;;;;;;0.28;0.28;;;4.30;99.90;;;;;;6161613;23;20095;-88
2023/01/16 05:25:30;;;;;;;;;;;;;;;;;;;;;
2023/01/16 05:28:05;;;;;;;0.00;0.00;;;4.80;99.90;;;;;;6161499;23;20017;-89
2023/01/16 05:30:44;;;;;;;;;;;4.10;99.90;;;;;;6137310;23;20099;-88
2023/01/16 05:33:15;;;;;;;0.28;0.08;;;4.40;99.90;;;;;;6136909;23;19923;-89
2023/01/16 05:36:03;;;;;;;;;;;;;;;;;;;;;
2023/01/16 05:39:02;;;;;;;;;;;;;;;;;;;;;
2023/01/16 05:41:45;;;;;;;0.10;0.10;;;4.00;99.90;;;;;;6162538;23;20328;-88
2023/01/16 05:44:25;;;;;;;0.00;0.00;;;3.90;99.90;;;;;;6094361;23;20020;-88
2023/01/16 05:47:12;;;;;;;6.07;0.85;;;4.40;99.90;;;;;;6090705;23;20020;-88
2023/01/16 05:49:43;;;;;;;0.00;0.00;;;4.10;99.90;;;;;;6160749;23;20060;-88
2023/01/16 05:52:29;;;;;;;0.80;0.10;;;4.10;99.90;;;;;;6137796;23;20005;-88
2023/01/16 05:55:29;;;;;;;0.05;0.03;;;4.10;99.90;;;;;;6137376;23;20023;-88
2023/01/16 05:58:00;;;;;;;0.00;0.00;;;4.10;99.90;;;;;;6137516;23;20017;-88
2023/01/16 06:00:42;;;;;;;0.00;0.00;;;4.10;99.90;;;;;;6114744;23;20021;-88
2023/01/16 06:03:21;;;;;;;;;;;;;;;;;;;;;
2023/01/16 06:06:10;;;;;;;0.10;0.10;;;4.10;99.90;;;;;;6162524;23;20028;-88
2023/01/16 06:08:53;;;;;;;;;;;;;;;;;;;;;
2023/01/16 06:11:46;;;;;;;0.00;0.00;;;4.10;99.90;;;;;;6177444;23;20008;-88
2023/01/16 06:14:31;;;;;;;;;;;;;;;;;;;;;
2023/01/16 06:17:19;;;;;;;;;;;;;;;;;;;;;
2023/01/16 06:19:59;;;;;;;0.00;0.00;;;4.00;99.90;;;;;;6141742;23;20024;-88
2023/01/16 06:22:41;;;;;;;8.75;1.35;;;4.60;99.90;;;;;;6132552;23;20061;-89
2023/01/16 06:28:04;;;;;;;0.00;0.00;;;4.10;99.90;;;;;;6158657;23;20025;-88
2023/01/16 06:37:05;;;;;;;0.15;0.05;;;4.00;99.90;;;;;;6116369;23;20021;-89
2023/01/16 06:40:24;;;;;;;;;;;;;;;;;;;;;
2023/01/16 06:43:27;;;;;;;0.00;0.00;;;4.00;99.90;;;;;;6151940;23;20360;-89
2023/01/16 06:46:03;;;;;;;0.75;0.25;;;4.10;99.90;;;;;;6107927;23;20084;-89
2023/01/16 06:48:47;;;;;;;0.00;0.00;;;3.90;99.90;;;;;;6158946;23;20313;-89
2023/01/16 06:51:52;;;;;;;;;;;;;;;;;;;;;
2023/01/16 06:55:13;;;;;;;;;;;;;;;;;;;;;
2023/01/16 06:57:49;;;;;;;;;;;;;;;;;;;;;
2023/01/16 07:00:54;;;;;;;;;;;;;;;;;;;;;
2023/01/16 07:03:59;;;;;;;0.00;0.00;;;3.80;99.90;;;;;;6140931;23;20021;-89
2023/01/16 07:06:43;;;;;;;0.20;0.20;;;4.10;99.90;;;;;;6110799;23;20030;-88
2023/01/16 07:09:32;;;;;;;0.00;0.00;;;3.90;99.90;;;;;;6110570;23;20100;-89
2023/01/16 07:12:05;;;;;;;0.00;0.00;;;3.80;99.90;;;;;;6132305;23;20018;-88
2023/01/16 07:25:01;;;;;;;0.00;0.00;;;3.90;99.90;;;;;;6103259;23;20021;-89
2023/01/16 07:27:59;;;;;;;0.00;0.00;;;3.90;99.90;;;;;;6101312;23;20093;-89
2023/01/16 07:31:03;;;;;;;;;;;;;;;;;;;;;
2023/01/16 07:33:57;;;;;;;;;;;;;;;;;;;;;
2023/01/16 07:37:13;;;;;;;;;;;;;;;;;;;;;
2023/01/16 07:40:03;;;;;;;0.10;0.00;;;3.90;99.90;;;;;;6158007;23;20096;-89
2023/01/16 07:42:57;;;;;;;0.55;0.00;;;4.60;99.90;;;;;;6132853;23;20053;-88
2023/01/16 07:45:51;;;;;;;0.00;0.00;;;4.20;99.90;;;;;;6134224;23;20021;-89
2023/01/16 07:48:51;;;;;;;0.00;0.00;;;3.90;99.90;;;;;;6131966;23;20018;-88
2023/01/16 07:51:31;;;;;;;0.00;0.00;;;3.90;99.90;;;;;;6153514;23;20017;-90
2023/01/16 07:54:27;;;;;;;;;;;;;;;;;;;;;
2023/01/16 07:57:18;;;;;;;0.00;0.00;;;4.10;99.90;;;;;;6136342;23;20020;-89
2023/01/16 08:00:24;;;;;;;;;;;;;;;;;;;;;
2023/01/16 08:03:22;;;;;;;0.55;0.52;;;4.30;99.90;;;;;;6156237;23;20076;-88
2023/01/16 08:06:04;;;;;;;;;;;;;;;;;;;;;
2023/01/16 08:08:48;;;;;;;;;;;;;;;;;;;;;
2023/01/16 08:11:39;;;;;;;0.00;0.00;;;4.10;99.90;;;;;;6134418;23;20013;-89
2023/01/16 08:14:22;;;;;;;0.00;0.00;;;4.10;99.90;;;;;;6132901;23;20101;-89
2023/01/16 08:17:07;;;;;;;;;;;;;;;;;;;;;
2023/01/16 08:20:14;;;;;;;0.00;0.00;;;4.20;99.90;;;;;;6133411;23;20096;-90
2023/01/16 08:23:00;;;;;;;0.20;0.08;;;4.20;99.90;;;;;;6105152;23;20441;-89
2023/01/16 08:29:09;;;;;;;0.03;0.00;;;4.20;99.90;;;;;;6145799;23;20025;-89
2023/01/16 08:31:44;;;;;;;0.00;0.00;;;4.20;99.90;;;;;;6131347;23;20028;-89
2023/01/16 08:34:26;;;;;;;;;;;;;;;;;;;;;
2023/01/16 08:37:40;;;;;;;0.00;0.00;;;4.30;99.90;;;;;;6156588;23;20460;-88
2023/01/16 08:40:08;;;;;;;0.00;0.00;;;4.30;99.90;;;;;;6155569;23;20088;-90
2023/01/16 08:55:15;;;;;;;;;;;;;;;;;;;;;
2023/01/16 08:58:24;;;;;;;3.83;0.85;;;4.30;99.90;;;;;;6124775;23;20056;-89
2023/01/16 09:01:05;;;;;;;0.00;0.00;;;4.30;99.90;;;;;;6075583;23;20080;-88
2023/01/16 09:03:54;;;;;;;;;;;;;;;;;;;;;
2023/01/16 09:06:54;;;;;;;;;;;;;;;;;;;;;
2023/01/16 09:15:50;;;;;;;0.20;0.20;;;4.50;99.90;;;;;;6155515;23;20057;-87
2023/01/16 09:18:24;;;;;;;0.00;0.00;;;4.30;99.90;;;;;;6084616;23;20021;-87
2023/01/16 09:21:23;;;;;;;0.00;0.00;;;4.40;99.90;;;;;;6130496;23;20018;-87
2023/01/16 09:24:02;;;;;;;;;;;;;;;;;;;;;
2023/01/16 09:26:40;;;;;;;0.00;0.00;;;4.40;99.90;;;;;;6155426;23;20391;-87
2023/01/16 09:29:26;;;;;;;0.00;0.00;;;4.40;99.90;;;;;;6155199;23;20080;-87
2023/01/16 09:32:17;;;;;;;;;;;;;;;;;;;;;
2023/01/16 09:34:58;;;;;;;0.00;0.00;;;4.60;99.90;;;;;;6154801;23;20039;-87
2023/01/16 09:37:36;;;;;;;0.00;0.00;;;4.40;99.90;;;;;;6106302;23;20022;-87
2023/01/16 09:40:29;;;;;;;0.00;0.00;;;4.70;99.90;;;;;;6107307;23;20100;-88
2023/01/16 09:43:52;;;;;;;0.00;0.00;;;4.40;99.90;;;;;;6120139;23;20076;-88
2023/01/16 09:46:44;;;;;;;0.00;0.00;;;4.40;99.90;;;;;;6070759;23;20022;-87
2023/01/16 09:49:23;;;;;;;0.00;0.00;;;4.60;99.90;;;;;;6048742;23;20018;-86
2023/01/16 10:05:07;;;;;;;;;;;;;;;;;;;;;
2023/01/16 10:08:18;;;;;;;;;;;;;;;;;;;;;
2023/01/16 10:14:53;;;;;;;;;;;;;;;;;;;;;
2023/01/16 10:21:12;;;;;;;;;;;;;;;;;;;;;
2023/01/16 10:24:28;;;;;;;0.00;0.00;;;4.40;99.90;;;;;;6158558;23;20021;-90
2023/01/16 10:27:34;;;;;;;0.70;0.00;;;4.40;99.90;;;;;;5988890;23;20023;-89
2023/01/16 10:31:11;;;;;;;;;;;;;;;;;;;;;
2023/01/16 10:34:23;;;;;;;;;;;;;;;;;;;;;
2023/01/16 10:37:00;;;;;;;0.00;0.00;;;4.30;99.90;;;;;;6150439;23;20017;-89
2023/01/16 10:39:45;;;;;;;0.00;0.00;;;4.30;99.90;;;;;;6136216;23;20048;-88
2023/01/16 10:51:05;;;;;;;0.00;0.00;;;4.30;99.90;;;;;;6160997;23;20079;-87
2023/01/16 10:53:54;;;;;;;;;;;;;;;;;;;;;
2023/01/16 10:56:48;;;;;;;0.65;0.47;;;4.30;99.90;;;;;;6137839;23;20064;-88
2023/01/16 10:59:29;;;;;;;0.00;0.00;;;4.40;99.90;;;;;;6115180;23;20023;-88
2023/01/16 11:02:25;;;;;;;0.00;0.00;;;4.40;99.90;;;;;;6136529;23;20505;-87
2023/01/16 11:05:24;;;;;;;;;;;;;;;;;;;;;
2023/01/16 11:20:49;;;;;;;;;;;;;;;;;;;;;
2023/01/16 11:23:29;;;;;;;0.00;0.00;;;4.60;99.90;;;;;;6057301;23;20084;-88
2023/01/16 11:26:40;;;;;;;0.00;0.00;;;4.40;99.90;;;;;;6107228;23;20376;-89
2023/01/16 11:32:13;;;;;;;0.00;0.00;;;4.90;99.90;;;;;;6112266;23;20025;-88
2023/01/16 11:34:57;;;;;;;;;;;;;;;;;;;;;
2023/01/16 11:37:47;;;;;;;0.05;0.05;;;4.40;99.90;;;;;;6132527;23;20017;-87
2023/01/16 11:40:29;;;;;;;0.00;0.00;;;4.90;99.90;;;;;;6107824;23;20052;-88
2023/01/16 11:46:18;;;;;;;0.00;0.00;;;4.80;99.90;;;;;;6133130;23;20018;-87
2023/01/16 11:49:17;;;;;;;0.00;0.00;;;4.50;99.90;;;;;;6107378;23;20044;-87
2023/01/16 11:52:02;;;;;;;0.00;0.00;;;4.60;99.90;;;;;;6108003;23;20096;-87
2023/01/16 11:54:35;;;;;;;0.00;0.00;;;4.60;99.90;;;;;;6085584;23;20018;-87
2023/01/16 11:57:30;;;;;;;0.00;0.00;;;4.60;99.90;;;;;;6107621;23;20448;-87
2023/01/16 12:00:44;;;;;;;0.00;0.00;;;4.60;99.90;;;;;;6107977;23;20096;-87
2023/01/16 12:10:32;;;;;;;0.00;0.00;;;4.80;99.90;;;;;;6128637;23;20040;-87
2023/01/16 12:16:36;;;;;;;0.00;0.00;;;4.70;99.90;;;;;;6129960;23;20022;-89
2023/01/16 12:19:37;;;;;;;0.60;0.28;;;4.80;99.90;;;;;;6105704;23;20022;-86
2023/01/16 12:22:34;;;;;;;0.00;0.00;;;4.80;99.90;;;;;;6122814;23;20021;-86
2023/01/16 12:25:50;;;;;;;0.00;0.00;;;4.80;99.90;;;;;;6130697;23;20017;-87
2023/01/16 12:28:18;;;;;;;0.00;0.00;;;4.80;99.90;;;;;;6108478;23;20013;-86
2023/01/16 12:34:34;;;;;;;0.00;0.00;;;4.80;99.90;;;;;;6143290;23;20021;-87
2023/01/16 12:37:39;;;;;;;0.00;0.00;;;4.80;99.90;;;;;;6131570;23;20028;-87
2023/01/16 12:40:29;;;;;;;0.00;0.00;;;4.80;99.90;;;;;;6156128;23;20032;-86
2023/01/16 12:43:38;;;;;;;0.60;0.40;;;4.80;99.90;;;;;;6131108;23;20360;-88
2023/01/16 12:46:55;;;;;;;0.00;0.00;;;4.80;99.90;;;;;;6131397;23;20025;-87
2023/01/16 12:49:35;;;;;;;0.00;0.00;;;4.80;99.90;;;;;;6137821;23;20024;-87
2023/01/16 12:52:09;;;;;;;0.00;0.00;;;5.10;99.90;;;;;;6131409;23;20025;-87
2023/01/16 12:54:58;;;;;;;0.00;0.00;;;4.90;99.90;;;;;;6131399;23;20391;-88
2023/01/16 12:58:12;;;;;;;0.00;0.00;;;4.90;99.90;;;;;;6131633;23;20025;-88
2023/01/16 13:01:13;;;;;;;0.00;0.00;;;4.90;99.90;;;;;;6131084;23;20024;-86
2023/01/16 13:03:53;;;;;;;0.00;0.00;;;4.90;99.90;;;;;;6111604;23;20448;-88
2023/01/16 13:06:45;;;;;;;0.00;0.00;;;4.90;99.90;;;;;;6155417;23;20098;-87
2023/01/16 13:19:25;;;;;;;0.00;0.00;;;4.90;99.90;;;;;;6147869;23;20510;-89
2023/01/16 13:25:47;;;;;;;0.00;0.00;;;5.20;99.90;;;;;;6145927;23;20021;-89
2023/01/16 13:28:57;;;;;;;0.00;0.00;;;5.30;99.90;;;;;;6077867;23;20300;-90
2023/01/16 13:34:48;;;;;;;0.00;0.00;;;5.30;99.90;;;;;;6157844;23;20049;-89
2023/01/16 13:37:46;;;;;;;;;;;;;;;;;;;;;
2023/01/16 13:40:39;;;;;;;0.55;0.32;;;5.30;99.90;;;;;;6157135;23;20017;-90
2023/01/16 13:46:35;;;;;;;1.15;0.10;;;5.30;99.90;;;;;;6151476;23;20028;-90
2023/01/16 13:49:11;;;;;;;0.00;0.00;;;5.20;99.90;;;;;;6131739;23;20080;-89
2023/01/16 13:52:25;;;;;;;0.00;0.00;;;5.10;99.90;;;;;;6131359;23;20337;-88
2023/01/16 13:55:31;;;;;;;0.00;0.00;;;5.20;99.90;;;;;;6154643;23;20464;-87
2023/01/16 13:58:23;;;;;;;0.00;0.00;;;5.20;99.90;;;;;;6130832;23;20021;-87
2023/01/16 14:01:14;;;;;;;;;;;;;;;;;;;;;
2023/01/16 14:04:16;;;;;;;0.00;0.00;;;5.30;99.90;;;;;;6155640;23;20018;-87
2023/01/16 14:10:24;;;;;;;0.00;0.00;;;5.60;99.90;;;;;;6156006;23;20022;-87
2023/01/16 14:13:28;;;;;;;0.00;0.00;;;5.30;99.90;;;;;;6128627;23;20018;-86
2023/01/16 14:19:36;;;;;;;0.00;0.00;;;5.40;99.90;;;;;;6123117;23;20025;-88
2023/01/16 14:24:58;;;;;;;0.00;0.00;;;5.30;99.90;;;;;;6155475;23;20468;-88
2023/01/16 14:27:57;;;;;;;0.00;0.00;;;5.40;99.90;;;;;;6130132;23;20021;-89
2023/01/16 14:31:03;;;;;;;0.00;0.00;;;5.30;99.90;;;;;;6125290;23;20543;-89
2023/01/16 14:33:43;;;;;;;1.02;0.35;;;5.40;99.90;;;;;;6130723;23;20049;-88
2023/01/16 14:36:33;;;;;;;0.00;0.00;;;5.30;99.90;;;;;;6130162;23;20017;-89
2023/01/16 14:39:21;;;;;;;0.20;0.00;;;5.40;99.90;;;;;;6130797;23;20022;-89
2023/01/16 14:57:42;;;;;;;0.00;0.00;;;5.30;99.90;;;;;;6157212;23;20084;-90
2023/01/16 15:00:35;;;;;;;;;;;;;;;;;;;;;
2023/01/16 15:03:41;;;;;;;;;;;;;;;;;;;;;
2023/01/16 15:06:21;;;;;;;0.10;0.10;;;5.30;99.90;;;;;;6156570;23;20020;-88
2023/01/16 15:12:36;;;;;;;;;;;;;;;;;;;;;
2023/01/16 15:24:33;;;;;;;0.00;0.00;;;5.10;99.90;;;;;;6157131;23;20070;-87
2023/01/16 15:27:28;;;;;;;0.00;0.00;;;5.10;99.90;;;;;;6156393;23;20018;-87
2023/01/16 15:30:18;;;;;;;0.00;0.00;;;5.10;99.90;;;;;;6108968;23;20017;-88
2023/01/16 15:33:43;;;;;;;0.00;0.00;;;5.10;99.90;;;;;;6120818;23;20418;-89
2023/01/16 15:36:07;;;;;;;;;;;;;;;;;;;;;
2023/01/16 15:38:58;;;;;;;0.00;0.00;;;5.00;99.90;;;;;;6169964;23;20045;-86
2023/01/16 15:47:36;;;;;;;0.00;0.00;;;4.90;99.90;;;;;;6156167;23;20476;-86
2023/01/16 15:50:43;;;;;;;0.70;0.20;;;4.90;99.90;;;;;;6132310;23;20475;-87
2023/01/16 15:53:08;;;;;;;;;;;4.90;99.90;;;;;;6156753;23;20348;-86
2023/01/16 15:56:16;;;;;;;0.03;0.00;;;5.10;99.90;;;;;;6131655;23;19916;-86
2023/01/16 15:58:48;;;;;;;0.30;0.10;;;5.00;99.90;;;;;;6133123;23;20096;-87
2023/01/16 16:01:33;;;;;;;0.00;0.00;;;4.90;99.90;;;;;;6110731;23;20104;-86
2023/01/16 16:04:15;;;;;;;0.10;0.03;;;4.80;99.90;;;;;;6132474;23;20021;-87
2023/01/16 16:06:53;;;;;;;0.00;0.00;;;4.80;99.90;;;;;;6110367;23;20100;-87
2023/01/16 16:09:38;;;;;;;;;;;;;;;;;;;;;
2023/01/16 16:12:14;;;;;;;0.00;0.00;;;4.90;99.90;;;;;;6158122;23;20345;-87
2023/01/16 16:23:46;;;;;;;0.00;0.00;;;4.80;99.90;;;;;;6156737;23;20072;-86
2023/01/16 16:26:16;;;;;;;0.00;0.00;;;5.20;99.90;;;;;;6131873;23;20112;-86
2023/01/16 16:28:57;;;;;;;0.15;0.00;;;4.80;99.90;;;;;;6084084;23;20104;-87
2023/01/16 16:31:32;;;;;;;0.00;0.00;;;4.80;99.90;;;;;;6108585;23;20100;-87
2023/01/16 16:34:44;;;;;;;;;;;;;;;;;;;;;
2023/01/16 16:37:20;;;;;;;0.00;0.00;;;5.10;99.90;;;;;;6151463;23;20344;-87
2023/01/16 16:40:29;;;;;;;0.13;0.13;;;4.90;99.90;;;;;;6156364;23;20471;-86
2023/01/16 16:43:56;;;;;;;0.15;0.15;;;4.90;99.90;;;;;;6118619;23;20116;-87
2023/01/16 16:46:46;;;;;;;0.00;0.00;;;4.90;99.90;;;;;;6132049;23;20017;-86
2023/01/16 16:49:36;;;;;;;;;;;;;;;;;;;;;
2023/01/16 16:52:52;;;;;;;;;;;;;;;;;;;;;
2023/01/16 16:55:44;;;;;;;0.00;0.00;;;4.90;99.90;;;;;;6154671;23;20057;-88
2023/01/16 16:58:36;;;;;;;0.00;0.00;;;4.80;99.90;;;;;;6130059;23;20021;-87
2023/01/16 17:01:45;;;;;;;;;;;;;;;;;;;;;
2023/01/16 17:04:45;;;;;;;0.00;0.00;;;4.80;99.90;;;;;;6154786;23;20017;-88
2023/01/16 17:07:56;;;;;;;;;;;;;;;;;;;;;
2023/01/16 17:10:50;;;;;;;0.00;0.00;;;4.80;99.90;;;;;;6117260;23;20013;-88
2023/01/16 17:13:20;;;;;;;0.00;0.00;;;4.80;99.90;;;;;;6133352;23;20025;-88
2023/01/16 17:16:35;;;;;;;0.00;0.00;;;4.80;99.90;;;;;;6156046;23;20014;-88
2023/01/16 17:20:30;;;;;;;;;;;;;;;;;;;;;
2023/01/16 17:23:08;;;;;;;0.00;0.00;;;4.80;99.90;;;;;;6070219;23;20023;-88
2023/01/16 17:25:46;;;;;;;0.93;0.52;;;4.80;99.90;;;;;;6131150;23;20053;-89
2023/01/16 17:28:57;;;;;;;;;;;;;;;;;;;;;
2023/01/16 17:49:38;;;;;;;;;;;;;;;;;;;;;
2023/01/16 17:52:54;;;;;;;0.17;0.03;;;4.90;99.90;;;;;;6097341;23;20040;-93
2023/01/16 17:59:07;;;;;;;0.00;0.00;;;4.80;99.90;;;;;;6156192;23;20104;-92
2023/01/16 18:02:42;;;;;;;0.00;0.00;;;5.00;99.90;;;;;;6107230;23;20028;-92
2023/01/16 18:09:31;;;;;;;;;;;;;;;;;;;;;
2023/01/16 18:19:55;;;;;;;;;;;;;;;;;;;;;
2023/01/16 18:22:24;;;;;;;;;;;;;;;;;;;;;
2023/01/16 18:25:37;;;;;;;0.00;0.00;;;4.90;99.90;;;;;;6098250;23;20062;-91
2023/01/16 18:28:40;;;;;;;0.00;0.00;;;4.90;99.90;;;;;;6049569;23;20054;-91
2023/01/16 18:35:20;;;;;;;0.00;0.00;;;4.80;99.90;;;;;;6072994;23;20026;-91
2023/01/16 19:02:27;;;;;;;0.85;0.40;;;4.80;99.90;;;;;;6160045;23;20025;-87
2023/01/16 19:04:56;;;;;;;0.00;0.00;;;5.00;99.90;;;;;;6136034;23;20428;-87
2023/01/16 19:07:46;;;;;;;0.10;0.10;;;5.30;99.90;;;;;;6135284;23;20099;-87
2023/01/16 19:10:36;;;;;;;;;;;;;;;;;;;;;
2023/01/16 19:13:42;;;;;;;0.10;0.00;;;4.80;99.90;;;;;;6161250;23;20021;-87
2023/01/16 19:16:56;;;;;;;;;;;;;;;;;;;;;
2023/01/16 19:19:58;;;;;;;;;;;;;;;;;;;;;
2023/01/16 19:22:40;;;;;;;;;;;;;;;;;;;;;
2023/01/16 19:25:12;;;;;;;0.00;0.00;;;4.80;99.90;;;;;;6132791;23;20105;-87
2023/01/16 19:28:21;;;;;;;;;;;;;;;;;;;;;
2023/01/16 19:30:54;;;;;;;1.95;0.32;;;4.90;99.90;;;;;;6156722;23;20017;-85
2023/01/16 19:33:52;;;;;;;0.10;0.10;;;4.80;99.90;;;;;;6109702;23;20081;-87
2023/01/16 19:36:31;;;;;;;0.13;0.10;;;5.00;99.90;;;;;;6110001;23;20018;-87
2023/01/16 19:39:20;;;;;;;;;;;;;;;;;;;;;
2023/01/16 19:47:40;;;;;;;;;;;;;;;;;;;;;
2023/01/16 19:50:20;;;;;;;0.50;0.20;;;4.90;99.90;;;;;;6157169;23;20519;-87
2023/01/16 19:52:49;;;;;;;0.10;0.10;;;4.90;99.90;;;;;;6133191;23;20049;-87
2023/01/16 19:58:46;;;;;;;1.30;0.20;;;4.90;99.90;;;;;;6152749;23;20057;-87
2023/01/16 20:04:20;;;;;;;;;;;;;;;;;;;;;
2023/01/16 20:07:02;;;;;;;0.30;0.00;;;5.10;99.90;;;;;;6154356;23;20018;-88
2023/01/16 20:09:41;;;;;;;1.02;0.20;;;5.00;99.90;;;;;;6110733;23;20495;-87
2023/01/16 20:12:41;;;;;;;;;;;;;;;;;;;;;
2023/01/16 20:15:44;;;;;;;;;;;;;;;;;;;;;
2023/01/16 20:18:32;;;;;;;0.00;0.00;;;5.00;99.90;;;;;;6156510;23;20013;-88
2023/01/16 20:21:41;;;;;;;;;;;;;;;;;;;;;
2023/01/16 20:24:49;;;;;;;0.00;0.00;;;5.00;99.90;;;;;;6129441;23;20379;-88
2023/01/16 20:27:53;;;;;;;;;;;;;;;;;;;;;
2023/01/16 20:30:58;;;;;;;;;;;;;;;;;;;;;
2023/01/16 20:33:51;;;;;;;0.00;0.00;;;5.10;99.90;;;;;;6148107;23;20017;-87
2023/01/16 20:39:53;;;;;;;0.15;0.10;;;5.00;99.90;;;;;;6127419;23;20071;-87
2023/01/16 20:48:12;;;;;;;0.00;0.00;;;4.90;99.90;;;;;;6131710;23;20424;-87
2023/01/16 20:54:13;;;;;;;0.00;0.00;;;4.80;99.90;;;;;;6100997;23;20041;-87
2023/01/16 20:56:52;;;;;;;1.25;1.25;;;4.90;99.90;;;;;;6110132;23;20017;-87
2023/01/16 20:59:39;;;;;;;0.00;0.00;;;5.00;99.90;;;;;;6156576;23;20017;-87
2023/01/16 21:02:13;;;;;;;0.03;0.00;;;4.60;99.90;;;;;;6131638;23;20084;-86
2023/01/16 21:04:50;;;;;;;0.00;0.00;;;4.80;99.90;;;;;;6131441;23;20013;-86
2023/01/16 21:07:37;;;;;;;;;;;;;;;;;;;;;
2023/01/16 21:10:08;;;;;;;0.05;0.00;;;4.40;99.90;;;;;;6132240;23;20428;-87
2023/01/16 21:15:45;;;;;;;0.03;0.03;;;4.30;99.90;;;;;;6131355;23;20100;-86
2023/01/16 21:24:34;;;;;;;;;;;;;;;;;;;;;
2023/01/16 21:27:39;;;;;;;0.10;0.10;;;3.90;99.90;;;;;;6155674;23;20468;-88
2023/01/16 21:30:35;;;;;;;0.00;0.00;;;4.00;99.90;;;;;;6131888;23;20018;-88
2023/01/16 21:36:11;;;;;;;0.00;0.00;;;4.20;99.90;;;;;;6136485;23;20017;-88
2023/01/16 21:39:09;;;;;;;;;;;;;;;;;;;;;
2023/01/16 21:48:35;;;;;;;;;;;;;;;;;;;;;
2023/01/16 21:52:01;;;;;;;;;;;;;;;;;;;;;
2023/01/16 21:54:42;;;;;;;0.10;0.00;;;3.90;99.90;;;;;;6151698;23;20099;-90
2023/01/16 21:57:44;;;;;;;;;;;;;;;;;;;;;
2023/01/16 22:04:00;;;;;;;;;;;;;;;;;;;;;
2023/01/16 22:19:39;;;;;;;;;;;;;;;;;;;;;
2023/01/16 22:22:24;;;;;;;0.00;0.00;;;3.80;99.90;;;;;;6156428;23;20360;-90
2023/01/16 22:25:05;;;;;;;;;;;;;;;;;;;;;
2023/01/16 22:28:19;;;;;;;;;;;;;;;;;;;;;
2023/01/16 22:31:12;;;;;;;0.00;0.00;;;3.90;99.90;;;;;;6156247;23;20036;-90
2023/01/16 22:34:26;;;;;;;;;;;;;;;;;;;;;
2023/01/16 22:37:11;;;;;;;;;;;;;;;;;;;;;
2023/01/16 22:39:50;;;;;;;;;;;;;;;;;;;;;
2023/01/16 22:42:27;;;;;;;0.00;0.00;;;4.30;99.90;;;;;;6156724;23;20016;-89
2023/01/16 22:48:21;;;;;;;0.65;0.17;;;4.10;99.90;;;;;;6156067;23;20436;-90
2023/01/16 22:51:12;;;;;;;;;;;;;;;;;;;;;
2023/01/16 22:56:46;;;;;;;0.00;0.00;;;4.00;99.90;;;;;;6127377;23;20032;-90
2023/01/16 22:59:21;;;;;;;0.00;0.00;;;3.90;99.90;;;;;;6132479;23;20314;-90
2023/01/16 23:02:09;;;;;;;;;;;;;;;;;;;;;
2023/01/16 23:05:23;;;;;;;;;;;;;;;;;;;;;
2023/01/16 23:08:42;;;;;;;0.00;0.00;;;4.00;99.90;;;;;;6158048;23;20014;-89
2023/01/16 23:18:32;;;;;;;0.00;0.00;;;4.20;99.90;;;;;;6137226;23;20017;-90
2023/01/16 23:21:40;;;;;;;;;;;;;;;;;;;;;